VHHH

Chek Lap Kok International Airport

Hong Kong, Hong Kong
TAF VHHH 241700Z 2418/2524 08010KT 9999 FEW015 SCT030 TX32/2506Z TN26/2422Z TN26/2522Z TEMPO 2418/2424 3000 -TSRA SHRA FEW012CB SCT025
Issued Valid From Valid To
Sep-24 @ 17:00 UTC
(2 hours ago)
Sep-24 @ 18:00 UTC
(an hour ago)
Sep-26 @ 00:00 UTC
(-1 days ago)
Sep-24 @ 18:00 to Sep-26 @ 00:00
TAF VHHH 241700Z 2418/2524 08010KT 9999 FEW015 SCT030 TX32/2506Z TN26/2422Z TN26/2522Z
Wind Visibility Clouds
80° at 10 knots 10,000+ meters
  • Few at 1,500' AGL
  • Scattered at 3,000' AGL
Temporary Sep-24 @ 18:00 to Sep-25 @ 00:00
TEMPO 2418/2424 3000 -TSRA SHRA FEW012CB SCT025
Visibility Clouds Conditions
2,993 meters
  • Few at 1,200' AGL
  • Scattered at 2,500' AGL
  • Light Thunderstorm
  • Light Rain
  • Rain
TAF VHHH 241700Z 2418/2524 08010KT 9999 FEW015 SCT030 TX32/2506Z TN26/2422Z TN26/2522Z TEMPO 2418/2424 3000 -TSRA SHRA FEW012CB SCT025
Issued Sep-24 @ 17:00 UTC
(2 hours ago)
Valid From Sep-24 @ 18:00 UTC
(an hour ago)
Valid To Sep-26 @ 00:00 UTC
(-1 days ago)
Sep-24 @ 18:00 - Sep-26 @ 00:00
Wind Visibility
80° at 10 knots 10,000+ meters
Clouds
  • Few at 1,500' AGL
  • Scattered at 3,000' AGL
Temporary Sep-24 @ 18:00 - Sep-25 @ 00:00
Clouds
  • Few at 1,200' AGL
  • Scattered at 2,500' AGL
Conditions
  • Light Thunderstorm
  • Light Rain
  • Rain